Time;durP1;ratioP1;P1;durP2;ratioP2;P2;SDS_P1;SDS_P2;PMS_P1;PMS_P2;Temp;Humidity;BMP_temperature;BMP_pressure;BME280_temperature;BME280_humidity;BME280_pressure;Samples;Min_cycle;Max_cycle;Signal;HPM_P1;HPM_P2
2021/12/19 00:02:04;;;;;;;8.10;3.10;;;7.20;99.90;;;;;;5014301;28;20509;-58
2021/12/19 00:04:40;;;;;;;10.20;3.40;;;7.20;99.90;;;;;;5014474;28;20448;-57
2021/12/19 00:09:50;;;;;;;12.17;3.77;;;7.20;99.90;;;;;;5014226;28;20443;-57
2021/12/19 00:12:17;;;;;;;12.93;3.83;;;7.20;99.90;;;;;;5012938;28;20542;-56
2021/12/19 00:14:44;;;;;;;10.87;3.50;;;7.20;98.90;;;;;;5013919;28;20483;-59
2021/12/19 00:17:10;;;;;;;9.30;3.67;;;7.20;97.30;;;;;;5008506;28;20503;-57
2021/12/19 00:19:38;;;;;;;7.43;3.50;;;7.20;99.90;;;;;;5005567;28;20953;-57
2021/12/19 00:22:04;;;;;;;10.10;3.43;;;7.20;99.90;;;;;;5013793;28;21024;-58
2021/12/19 00:24:31;;;;;;;5.37;2.53;;;7.20;99.90;;;;;;5012674;28;20486;-58
2021/12/19 00:26:58;;;;;;;13.30;4.00;;;7.20;99.90;;;;;;5014172;28;20467;-57
2021/12/19 00:29:24;;;;;;;8.77;3.37;;;7.20;99.90;;;;;;5013650;28;20785;-58
2021/12/19 00:31:51;;;;;;;12.97;4.03;;;7.20;99.90;;;;;;5013731;28;20484;-57
2021/12/19 00:34:17;;;;;;;10.47;3.93;;;7.20;99.90;;;;;;5011765;28;20526;-57
2021/12/19 00:36:45;;;;;;;9.80;3.40;;;7.20;99.90;;;;;;5013916;28;20496;-57
2021/12/19 00:39:13;;;;;;;7.97;3.57;;;7.20;99.90;;;;;;5013542;28;20510;-57
2021/12/19 00:41:39;;;;;;;8.10;2.77;;;7.20;99.90;;;;;;5013426;28;20477;-57
2021/12/19 00:44:09;;;;;;;8.37;2.77;;;7.20;99.90;;;;;;5011346;28;20487;-57
2021/12/19 00:46:43;;;;;;;9.47;3.20;;;7.20;99.90;;;;;;5006763;28;20554;-58
2021/12/19 00:49:11;;;;;;;16.73;4.70;;;7.10;99.90;;;;;;5013613;28;20447;-58
2021/12/19 00:51:38;;;;;;;6.17;3.20;;;7.10;99.90;;;;;;5013459;28;20933;-57
2021/12/19 00:54:09;;;;;;;8.67;3.00;;;7.20;99.90;;;;;;5005545;28;21195;-57
2021/12/19 00:56:37;;;;;;;10.07;2.77;;;7.20;99.90;;;;;;4994144;28;20496;-57
2021/12/19 00:59:04;;;;;;;6.43;3.13;;;7.20;99.90;;;;;;5009585;28;20506;-57
2021/12/19 01:01:31;;;;;;;14.40;4.10;;;7.20;99.90;;;;;;5013190;28;20470;-58
2021/12/19 01:03:57;;;;;;;10.17;3.67;;;7.10;99.90;;;;;;4993840;28;20481;-58
2021/12/19 01:06:24;;;;;;;11.63;3.40;;;7.10;99.90;;;;;;4997448;28;20475;-57
2021/12/19 01:08:51;;;;;;;4.93;2.73;;;7.10;99.90;;;;;;5013115;28;20452;-58
2021/12/19 01:11:19;;;;;;;12.13;4.20;;;7.10;99.90;;;;;;5012278;28;21008;-59
2021/12/19 01:13:45;;;;;;;14.03;3.90;;;7.10;99.90;;;;;;5012466;28;20518;-58
2021/12/19 01:16:12;;;;;;;6.53;3.40;;;7.10;99.90;;;;;;5012781;28;20510;-59
2021/12/19 01:18:38;;;;;;;4.80;2.73;;;7.10;99.90;;;;;;5012981;28;20486;-59
2021/12/19 01:21:05;;;;;;;9.00;3.83;;;7.10;99.90;;;;;;5012761;28;20479;-59
2021/12/19 01:23:32;;;;;;;5.53;3.00;;;7.10;99.90;;;;;;5011118;28;20463;-58
2021/12/19 01:25:59;;;;;;;9.37;3.47;;;7.10;99.90;;;;;;5012747;28;20475;-58
2021/12/19 01:28:27;;;;;;;9.60;3.20;;;7.10;99.90;;;;;;5012079;28;20920;-58
2021/12/19 01:30:53;;;;;;;8.50;3.30;;;7.10;99.90;;;;;;5012908;28;20498;-59
2021/12/19 01:33:20;;;;;;;11.93;3.67;;;7.10;99.90;;;;;;4998629;28;20575;-59
2021/12/19 01:35:47;;;;;;;5.47;2.97;;;7.00;99.90;;;;;;5002749;28;20515;-58
2021/12/19 01:38:14;;;;;;;7.73;3.40;;;7.10;99.90;;;;;;5012397;28;20887;-58
2021/12/19 01:40:40;;;;;;;8.27;3.47;;;7.10;99.90;;;;;;5012703;28;20484;-58
2021/12/19 01:43:07;;;;;;;10.83;3.70;;;7.00;99.90;;;;;;5002567;28;20492;-58
2021/12/19 01:45:38;;;;;;;6.30;3.50;;;7.00;99.90;;;;;;5012699;28;20946;-58
2021/12/19 01:48:07;;;;;;;6.10;3.00;;;7.00;99.90;;;;;;5012456;28;20476;-59
2021/12/19 01:50:34;;;;;;;8.23;3.63;;;7.10;99.90;;;;;;5010442;28;20551;-58
2021/12/19 01:53:03;;;;;;;10.27;3.80;;;7.00;99.90;;;;;;5001148;28;20507;-58
2021/12/19 01:55:30;;;;;;;12.40;5.00;;;7.10;99.90;;;;;;4991874;28;20492;-57
2021/12/19 01:57:56;;;;;;;8.13;4.17;;;7.10;99.90;;;;;;4992641;28;20484;-58
2021/12/19 02:00:27;;;;;;;9.50;4.13;;;7.00;99.90;;;;;;4992904;28;20609;-58
2021/12/19 02:02:55;;;;;;;9.17;4.60;;;7.00;99.90;;;;;;5001329;28;20495;-58
2021/12/19 02:05:23;;;;;;;8.27;4.03;;;7.00;99.90;;;;;;5010628;28;20515;-58
2021/12/19 02:07:52;;;;;;;5.13;3.80;;;7.00;99.90;;;;;;5011979;28;20490;-57
2021/12/19 02:10:19;;;;;;;7.70;4.50;;;7.00;99.90;;;;;;4996666;28;20965;-57
2021/12/19 02:12:47;;;;;;;8.77;4.80;;;7.00;99.90;;;;;;5000483;28;20566;-57
2021/12/19 02:15:17;;;;;;;9.07;4.70;;;7.00;99.90;;;;;;5012263;28;20480;-59
2021/12/19 02:17:44;;;;;;;7.57;4.53;;;7.00;99.90;;;;;;5007335;28;20464;-58
2021/12/19 02:20:13;;;;;;;6.23;4.40;;;7.00;99.90;;;;;;5010096;28;20488;-57
2021/12/19 02:22:40;;;;;;;5.40;4.70;;;7.00;99.90;;;;;;5010291;28;20487;-58
2021/12/19 02:25:07;;;;;;;5.63;4.17;;;7.00;99.90;;;;;;5011900;28;20561;-57
2021/12/19 02:27:34;;;;;;;5.30;4.00;;;7.00;99.90;;;;;;5011661;28;20486;-57
2021/12/19 02:30:01;;;;;;;5.27;4.13;;;7.00;99.90;;;;;;4998955;28;20480;-57
2021/12/19 02:32:29;;;;;;;7.07;4.53;;;7.00;99.90;;;;;;5005814;28;20832;-57
2021/12/19 02:34:59;;;;;;;4.47;4.07;;;7.00;99.90;;;;;;5011573;28;20475;-57
2021/12/19 02:37:55;;;;;;;5.30;4.80;;;7.00;99.90;;;;;;5011620;28;20948;-57
2021/12/19 02:48:32;;;;;;;10.80;4.13;;;7.10;99.90;;;;;;5011309;28;20443;-58
2021/12/19 02:50:59;;;;;;;4.13;3.87;;;7.10;99.90;;;;;;5010875;28;20602;-58
2021/12/19 02:53:32;;;;;;;10.73;4.23;;;7.10;99.90;;;;;;5011503;28;20483;-58
2021/12/19 02:56:01;;;;;;;3.90;3.53;;;7.00;99.90;;;;;;5016167;28;20997;-57
2021/12/19 02:58:28;;;;;;;12.57;4.97;;;7.10;99.90;;;;;;5010115;28;20468;-57
2021/12/19 03:00:55;;;;;;;4.53;3.53;;;7.10;99.90;;;;;;4994845;28;20480;-57
2021/12/19 03:03:21;;;;;;;4.93;3.47;;;7.00;99.90;;;;;;4991910;28;20539;-58
2021/12/19 03:05:48;;;;;;;9.07;3.47;;;7.10;99.90;;;;;;4993700;28;20574;-58
2021/12/19 03:08:15;;;;;;;3.93;3.03;;;7.00;99.90;;;;;;4995785;28;21021;-57
2021/12/19 03:17:56;;;;;;;5.23;3.03;;;7.10;99.90;;;;;;5009464;28;20459;-58
2021/12/19 03:19:09;;;;;;;3.10;2.67;;;7.10;99.90;;;;;;5014401;28;20450;-49
2021/12/19 03:21:36;;;;;;;8.63;3.00;;;7.10;99.90;;;;;;5014251;28;20558;-48
2021/12/19 03:24:03;;;;;;;3.13;2.83;;;7.10;99.90;;;;;;5015603;28;20526;-53
2021/12/19 03:26:31;;;;;;;3.57;3.27;;;7.10;99.90;;;;;;5015077;28;20550;-53
2021/12/19 03:28:57;;;;;;;3.43;2.90;;;7.10;99.90;;;;;;5014646;28;20526;-53
2021/12/19 03:31:24;;;;;;;4.57;2.60;;;7.10;99.90;;;;;;5015312;28;20530;-52
2021/12/19 03:33:50;;;;;;;5.03;3.20;;;7.10;99.90;;;;;;5014240;28;20577;-53
2021/12/19 03:36:17;;;;;;;3.33;3.03;;;7.10;99.90;;;;;;5014872;28;20498;-53
2021/12/19 03:38:45;;;;;;;4.27;3.43;;;7.10;99.90;;;;;;5015005;28;20530;-52
2021/12/19 03:41:17;;;;;;;3.87;3.63;;;7.10;99.90;;;;;;5014364;28;20536;-53
2021/12/19 03:43:46;;;;;;;5.23;3.20;;;7.10;99.90;;;;;;5014555;28;20534;-52
2021/12/19 03:46:13;;;;;;;4.07;3.70;;;7.10;99.90;;;;;;5014148;28;20942;-52
2021/12/19 03:48:39;;;;;;;3.93;3.53;;;7.10;99.90;;;;;;5014790;28;20480;-52
2021/12/19 03:51:07;;;;;;;3.73;3.50;;;7.10;99.90;;;;;;5015031;28;20479;-54
2021/12/19 03:53:33;;;;;;;3.50;3.30;;;7.10;99.90;;;;;;5013646;28;20905;-53
2021/12/19 03:56:00;;;;;;;4.53;4.23;;;7.10;99.90;;;;;;5015010;28;20551;-53
2021/12/19 03:58:26;;;;;;;4.50;4.00;;;7.20;99.90;;;;;;5013664;28;20550;-53
2021/12/19 04:00:58;;;;;;;4.10;3.30;;;7.10;99.90;;;;;;5014789;28;20498;-53
2021/12/19 04:03:25;;;;;;;5.03;3.83;;;7.10;99.90;;;;;;5014895;28;20491;-53
2021/12/19 04:05:53;;;;;;;5.40;3.30;;;7.10;99.90;;;;;;5014432;28;20507;-54
2021/12/19 04:08:21;;;;;;;4.13;3.57;;;7.10;99.90;;;;;;5014202;28;20989;-52
2021/12/19 04:10:49;;;;;;;3.73;3.53;;;7.10;99.90;;;;;;5013091;28;20554;-53
2021/12/19 04:13:16;;;;;;;4.33;3.70;;;7.10;99.90;;;;;;5013132;28;20941;-52
2021/12/19 04:15:43;;;;;;;6.27;4.10;;;7.10;99.90;;;;;;5014057;28;20570;-53
2021/12/19 04:18:11;;;;;;;4.90;3.40;;;7.10;99.90;;;;;;5012516;28;20554;-52
2021/12/19 04:20:38;;;;;;;3.90;3.07;;;7.10;99.90;;;;;;5002474;28;20551;-52
2021/12/19 04:23:04;;;;;;;4.50;3.23;;;7.10;99.90;;;;;;5008779;28;20975;-53
2021/12/19 04:25:31;;;;;;;3.07;2.87;;;7.10;99.90;;;;;;5014364;28;20550;-52
2021/12/19 04:27:58;;;;;;;4.00;3.40;;;7.10;99.90;;;;;;5004338;28;20531;-53
2021/12/19 04:30:26;;;;;;;5.70;2.83;;;7.10;99.90;;;;;;4994734;28;20532;-52
2021/12/19 04:32:58;;;;;;;3.17;2.87;;;7.10;99.90;;;;;;5002395;28;20478;-52
2021/12/19 04:35:28;;;;;;;3.63;3.27;;;7.10;99.90;;;;;;5013969;28;20471;-52
2021/12/19 04:38:31;;;;;;;8.90;3.40;;;7.10;99.90;;;;;;5012222;28;20471;-48
2021/12/19 04:41:11;;;;;;;4.07;2.60;;;7.10;99.90;;;;;;5013926;28;20463;-52
2021/12/19 04:44:28;;;;;;;4.37;2.67;;;7.10;99.90;;;;;;5008494;28;20536;-51
2021/12/19 04:55:18;;;;;;;6.13;2.97;;;7.00;99.90;;;;;;5004845;28;20486;-56
2021/12/19 04:57:50;;;;;;;3.87;2.77;;;7.00;99.90;;;;;;5011744;28;20463;-57
2021/12/19 05:00:20;;;;;;;3.33;2.17;;;6.90;99.90;;;;;;5006159;28;20457;-55
2021/12/19 05:02:52;;;;;;;2.43;2.30;;;7.00;99.90;;;;;;5000773;28;20486;-57
2021/12/19 05:14:08;;;;;;;5.37;3.03;;;7.00;99.90;;;;;;5013280;28;20622;-52
2021/12/19 05:16:37;;;;;;;5.90;4.27;;;6.90;99.90;;;;;;5012715;28;20569;-52
2021/12/19 05:19:08;;;;;;;4.93;3.10;;;6.90;99.90;;;;;;5011286;28;20463;-52
2021/12/19 05:21:37;;;;;;;3.20;1.90;;;6.90;99.90;;;;;;5013374;28;20466;-52
2021/12/19 05:26:48;;;;;;;3.17;2.63;;;6.90;99.90;;;;;;4992677;28;20538;-53
2021/12/19 05:29:15;;;;;;;8.67;3.00;;;6.80;99.90;;;;;;4993189;28;20973;-51
2021/12/19 05:31:42;;;;;;;5.47;2.30;;;6.70;99.90;;;;;;4996253;28;20547;-53
2021/12/19 05:34:08;;;;;;;5.30;2.70;;;6.70;99.90;;;;;;5009213;28;20479;-52
2021/12/19 05:47:33;;;;;;;5.87;3.43;;;6.70;99.50;;;;;;5012382;28;20826;-52
2021/12/19 05:50:00;;;;;;;3.67;2.33;;;6.70;99.90;;;;;;5012609;28;20531;-52
2021/12/19 05:52:26;;;;;;;6.43;2.77;;;6.70;99.90;;;;;;5012679;28;20506;-52
2021/12/19 05:54:54;;;;;;;7.07;2.67;;;6.70;99.90;;;;;;5012763;28;20495;-52
2021/12/19 05:57:21;;;;;;;3.30;2.53;;;6.70;99.90;;;;;;5011423;28;20812;-52
2021/12/19 05:59:48;;;;;;;4.13;2.60;;;6.70;99.90;;;;;;5012176;28;20530;-53
2021/12/19 06:02:15;;;;;;;7.90;3.00;;;6.80;99.90;;;;;;5009981;28;21004;-52
2021/12/19 06:04:41;;;;;;;6.00;2.77;;;6.70;99.90;;;;;;5012433;28;20530;-53
2021/12/19 06:07:08;;;;;;;4.53;2.50;;;6.70;99.90;;;;;;5012501;28;20563;-53
2021/12/19 06:09:34;;;;;;;6.80;3.10;;;6.80;99.90;;;;;;5011661;28;20535;-53
2021/12/19 06:12:03;;;;;;;5.53;1.90;;;6.80;99.90;;;;;;5012553;28;20527;-52
2021/12/19 06:14:33;;;;;;;3.47;2.23;;;6.70;99.90;;;;;;5012483;28;20519;-53
2021/12/19 06:17:00;;;;;;;4.43;2.37;;;6.70;99.90;;;;;;5007094;28;20496;-53
2021/12/19 06:19:27;;;;;;;2.80;1.90;;;6.70;99.90;;;;;;5002259;28;20461;-53
2021/12/19 06:21:53;;;;;;;3.60;2.00;;;6.70;99.90;;;;;;5011389;28;20534;-53
2021/12/19 06:24:20;;;;;;;3.37;2.60;;;6.70;99.90;;;;;;5010436;28;20509;-53
2021/12/19 06:26:47;;;;;;;3.50;2.30;;;6.70;99.90;;;;;;5012088;28;20530;-52
2021/12/19 06:29:15;;;;;;;6.20;2.33;;;6.70;99.90;;;;;;5010605;28;20547;-52
2021/12/19 06:31:41;;;;;;;7.00;2.50;;;6.70;99.90;;;;;;5011917;28;20539;-53
2021/12/19 06:34:08;;;;;;;5.40;2.03;;;6.70;99.90;;;;;;5011229;28;20575;-53
2021/12/19 06:36:36;;;;;;;4.87;3.60;;;6.70;99.90;;;;;;5012028;28;20517;-53
2021/12/19 06:39:04;;;;;;;10.00;2.80;;;6.70;99.90;;;;;;5010156;28;20982;-53
2021/12/19 06:41:30;;;;;;;7.43;3.63;;;6.70;99.90;;;;;;5011641;28;20864;-53
2021/12/19 06:43:57;;;;;;;5.13;3.33;;;6.60;99.90;;;;;;5011662;28;20531;-52
2021/12/19 06:46:25;;;;;;;6.77;3.17;;;6.60;99.90;;;;;;5011819;28;20925;-53
2021/12/19 06:48:51;;;;;;;9.60;4.53;;;6.60;99.90;;;;;;5010972;28;20539;-52
2021/12/19 06:51:18;;;;;;;3.80;2.37;;;6.50;81.00;;;;;;5006581;28;20578;-52
2021/12/19 06:53:46;;;;;;;3.10;1.90;;;6.50;66.30;;;;;;5003028;28;20590;-50
2021/12/19 06:56:12;;;;;;;2.60;2.10;;;6.50;64.20;;;;;;5012099;28;20550;-47
2021/12/19 06:58:39;;;;;;;7.80;2.37;;;6.40;61.00;;;;;;5011665;28;20875;-49
2021/12/19 07:01:05;;;;;;;7.03;2.13;;;6.50;58.60;;;;;;5009592;28;20578;-55
2021/12/19 07:03:34;;;;;;;5.00;2.27;;;6.40;63.00;;;;;;5012150;28;20539;-56
2021/12/19 07:06:01;;;;;;;2.13;1.93;;;6.40;55.90;;;;;;5006451;28;20547;-55
2021/12/19 07:08:28;;;;;;;4.47;2.10;;;6.40;55.00;;;;;;5002693;28;20466;-55
2021/12/19 07:10:55;;;;;;;4.20;2.53;;;6.40;46.30;;;;;;5010956;28;21036;-53
2021/12/19 07:13:22;;;;;;;5.50;2.00;;;6.40;41.20;;;;;;5011741;28;20531;-53
2021/12/19 07:15:49;;;;;;;2.10;1.30;;;6.40;29.10;;;;;;5011581;28;20480;-53
2021/12/19 07:18:16;;;;;;;4.00;1.97;;;6.30;26.10;;;;;;5012175;28;20831;-53
2021/12/19 07:20:44;;;;;;;4.63;3.13;;;6.30;99.40;;;;;;5010968;28;20555;-48
2021/12/19 07:23:12;;;;;;;3.97;1.97;;;6.30;21.30;;;;;;5010239;28;20452;-53
2021/12/19 07:25:39;;;;;;;1.40;1.30;;;6.30;86.40;;;;;;5011610;28;20533;-52
2021/12/19 07:28:06;;;;;;;1.70;1.60;;;6.30;94.90;;;;;;5011039;28;20440;-53
2021/12/19 07:30:35;;;;;;;4.53;2.03;;;6.30;20.70;;;;;;5003523;28;20444;-53
2021/12/19 07:33:02;;;;;;;5.30;2.17;;;6.30;99.90;;;;;;5005990;28;20504;-52
2021/12/19 07:35:30;;;;;;;2.47;1.37;;;6.30;99.90;;;;;;5009499;28;20487;-53
2021/12/19 07:37:58;;;;;;;2.90;1.80;;;6.30;99.90;;;;;;4994752;28;20932;-52
2021/12/19 07:40:27;;;;;;;4.03;1.80;;;6.20;99.90;;;;;;5011487;28;21004;-52
2021/12/19 07:42:58;;;;;;;4.80;2.70;;;6.20;99.90;;;;;;5010375;28;20978;-52
2021/12/19 07:45:25;;;;;;;3.97;2.40;;;6.20;99.90;;;;;;5011745;28;20486;-55
2021/12/19 07:47:51;;;;;;;3.63;2.27;;;6.20;99.90;;;;;;5011117;28;20452;-52
2021/12/19 07:50:18;;;;;;;6.70;2.23;;;6.20;99.90;;;;;;5011344;28;20471;-50
2021/12/19 07:52:44;;;;;;;3.73;1.87;;;6.20;99.90;;;;;;5001457;28;20457;-48
2021/12/19 07:55:12;;;;;;;2.00;1.83;;;6.20;99.90;;;;;;4999344;28;20570;-49
2021/12/19 07:57:40;;;;;;;3.97;2.10;;;6.20;99.90;;;;;;5014251;28;20876;-48
2021/12/19 08:00:10;;;;;;;4.10;3.60;;;6.20;99.90;;;;;;5014890;28;20539;-47
2021/12/19 08:02:36;;;;;;;3.30;2.30;;;6.20;99.90;;;;;;5013532;28;20533;-48
2021/12/19 08:05:03;;;;;;;4.40;2.60;;;6.20;99.90;;;;;;5014690;28;20292;-47
2021/12/19 08:07:30;;;;;;;2.33;1.60;;;6.30;99.90;;;;;;5013369;28;20551;-48
2021/12/19 08:10:01;;;;;;;1.80;1.60;;;6.20;99.90;;;;;;5013791;28;21035;-46
2021/12/19 08:12:28;;;;;;;2.90;1.80;;;6.30;99.90;;;;;;5014769;28;20871;-47
2021/12/19 08:14:55;;;;;;;1.10;1.10;;;6.20;99.90;;;;;;5014367;28;20483;-47
2021/12/19 08:17:22;;;;;;;1.73;1.50;;;6.10;99.90;;;;;;5013514;28;20547;-48
2021/12/19 08:19:48;;;;;;;1.57;1.47;;;6.10;99.90;;;;;;5004323;28;20449;-47
2021/12/19 08:22:15;;;;;;;2.33;2.00;;;6.10;91.60;;;;;;5010602;28;20551;-48
2021/12/19 08:24:42;;;;;;;1.83;1.73;;;6.10;82.00;;;;;;5011154;28;21028;-46
2021/12/19 08:27:09;;;;;;;3.30;1.60;;;6.10;78.30;;;;;;5014277;28;20471;-47
2021/12/19 08:29:37;;;;;;;3.03;1.50;;;6.10;67.40;;;;;;5013645;28;20527;-48
2021/12/19 08:32:04;;;;;;;5.80;2.33;;;6.10;57.30;;;;;;5014155;28;20539;-47
2021/12/19 08:34:31;;;;;;;2.30;1.80;;;6.10;50.90;;;;;;5013358;28;21074;-47
2021/12/19 08:36:58;;;;;;;1.67;1.57;;;6.10;55.10;;;;;;5013118;28;20618;-47
2021/12/19 08:39:25;;;;;;;2.10;1.80;;;6.10;48.30;;;;;;5012952;28;20534;-47
2021/12/19 08:41:51;;;;;;;1.47;1.33;;;6.10;52.10;;;;;;5014097;28;20452;-46
2021/12/19 08:44:18;;;;;;;1.00;1.00;;;6.10;45.10;;;;;;5013058;28;20500;-46
2021/12/19 08:46:46;;;;;;;2.00;1.00;;;6.10;41.70;;;;;;5014016;28;20507;-48
2021/12/19 08:49:13;;;;;;;2.13;1.23;;;6.10;49.30;;;;;;5013293;28;20969;-46
2021/12/19 08:51:40;;;;;;;1.90;1.30;;;6.10;42.10;;;;;;5013853;28;20490;-47
2021/12/19 08:54:06;;;;;;;1.40;1.30;;;6.10;38.70;;;;;;5013010;28;20941;-47
2021/12/19 08:56:34;;;;;;;2.80;1.23;;;6.20;37.80;;;;;;5013018;28;20563;-47
2021/12/19 08:59:01;;;;;;;1.40;1.30;;;6.20;40.50;;;;;;5013152;28;20483;-48
2021/12/19 09:01:28;;;;;;;4.30;1.10;;;6.20;35.00;;;;;;5013575;28;20923;-46
2021/12/19 09:03:56;;;;;;;4.97;2.50;;;6.20;49.00;;;;;;5012555;28;20558;-56
2021/12/19 09:06:22;;;;;;;4.17;1.80;;;6.10;30.90;;;;;;5013459;28;20467;-57
2021/12/19 09:08:49;;;;;;;3.03;2.23;;;6.20;28.70;;;;;;5013137;28;20527;-56
2021/12/19 09:11:16;;;;;;;3.50;1.67;;;6.20;27.30;;;;;;5012815;28;21093;-56
2021/12/19 09:13:42;;;;;;;2.93;1.90;;;6.10;30.00;;;;;;5013535;28;20482;-56
2021/12/19 09:16:09;;;;;;;2.10;1.90;;;6.20;82.50;;;;;;5012751;28;20559;-57
2021/12/19 09:18:36;;;;;;;2.00;1.70;;;6.20;20.40;;;;;;5012647;28;20538;-56
2021/12/19 09:21:04;;;;;;;3.13;1.63;;;6.20;91.80;;;;;;5013432;28;20881;-56
2021/12/19 09:23:32;;;;;;;2.07;1.40;;;6.20;72.00;;;;;;5013332;28;20538;-56
2021/12/19 09:25:59;;;;;;;1.50;1.40;;;6.10;98.80;;;;;;5013196;28;20478;-56
2021/12/19 09:28:26;;;;;;;1.70;1.33;;;6.10;99.90;;;;;;5010164;28;20517;-55
2021/12/19 09:30:52;;;;;;;2.67;1.60;;;6.10;92.10;;;;;;5012945;28;20826;-57
2021/12/19 09:33:19;;;;;;;4.60;2.13;;;6.20;99.90;;;;;;5012832;28;20535;-56
2021/12/19 09:35:45;;;;;;;2.23;2.13;;;6.20;99.90;;;;;;5012787;28;20566;-56
2021/12/19 09:38:15;;;;;;;3.30;1.83;;;6.20;99.90;;;;;;5011336;28;21044;-56
2021/12/19 09:40:43;;;;;;;2.40;1.50;;;6.20;99.90;;;;;;5013104;28;20929;-55
2021/12/19 09:43:31;;;;;;;1.87;1.77;;;6.20;27.70;;;;;;5012422;28;20455;-57
2021/12/19 09:46:00;;;;;;;4.33;2.10;;;6.10;30.70;;;;;;5012451;28;20491;-57
2021/12/19 09:48:26;;;;;;;7.17;2.50;;;6.20;29.30;;;;;;5011901;28;20833;-56
2021/12/19 09:50:54;;;;;;;2.80;1.87;;;6.10;26.80;;;;;;5012618;28;20544;-52
2021/12/19 09:53:22;;;;;;;2.30;1.93;;;6.10;44.60;;;;;;5012825;28;20558;-52
2021/12/19 09:55:49;;;;;;;2.87;2.50;;;6.10;27.10;;;;;;5011920;28;21080;-51
2021/12/19 09:58:15;;;;;;;2.83;2.17;;;6.20;24.10;;;;;;5003964;28;20536;-52
2021/12/19 10:00:42;;;;;;;4.80;2.17;;;6.20;26.40;;;;;;4993155;28;20885;-53
2021/12/19 10:03:11;;;;;;;3.93;1.90;;;6.20;30.50;;;;;;4992819;28;20954;-52
2021/12/19 10:05:37;;;;;;;4.07;1.70;;;6.20;29.20;;;;;;4992974;28;20553;-52
2021/12/19 10:08:04;;;;;;;1.60;1.50;;;6.20;31.60;;;;;;5002086;28;20546;-52
2021/12/19 10:10:42;;;;;;;3.33;2.07;;;6.20;33.10;;;;;;5012389;28;20483;-53
2021/12/19 10:13:09;;;;;;;4.77;2.63;;;6.20;37.30;;;;;;5012848;28;20510;-51
2021/12/19 10:15:38;;;;;;;6.63;2.17;;;6.20;34.80;;;;;;5009635;28;21064;-50
2021/12/19 10:18:08;;;;;;;4.23;2.20;;;6.20;46.90;;;;;;5004773;28;20842;-50
2021/12/19 10:20:43;;;;;;;5.40;2.37;;;6.20;45.70;;;;;;4997548;28;20554;-50
2021/12/19 10:23:12;;;;;;;4.50;2.83;;;6.20;48.70;;;;;;5010616;28;20960;-50
2021/12/19 10:25:40;;;;;;;5.93;2.47;;;6.20;49.20;;;;;;5011402;28;21020;-51
2021/12/19 10:28:09;;;;;;;4.63;2.47;;;6.20;58.50;;;;;;5012082;28;20452;-51
2021/12/19 10:30:38;;;;;;;4.60;2.40;;;6.20;50.90;;;;;;5003663;28;20511;-50
2021/12/19 10:33:06;;;;;;;8.57;2.93;;;6.20;61.60;;;;;;4992708;28;20564;-50
2021/12/19 10:35:35;;;;;;;6.80;2.57;;;6.30;55.90;;;;;;5011736;28;20570;-51
2021/12/19 10:38:03;;;;;;;2.17;1.70;;;6.30;61.60;;;;;;5010957;28;20455;-50
2021/12/19 10:40:31;;;;;;;4.33;2.20;;;6.30;59.70;;;;;;5010502;28;20539;-50
2021/12/19 10:43:03;;;;;;;5.83;2.73;;;6.30;64.90;;;;;;5012100;28;20801;-51
2021/12/19 10:45:33;;;;;;;3.93;1.87;;;6.30;61.60;;;;;;5010685;28;20484;-51
2021/12/19 10:48:15;;;;;;;1.57;1.47;;;6.30;61.60;;;;;;5011003;28;21052;-50
2021/12/19 10:50:48;;;;;;;4.70;2.53;;;6.30;59.70;;;;;;5012275;28;20517;-51
2021/12/19 10:53:16;;;;;;;3.30;1.77;;;6.40;57.80;;;;;;5004794;28;20536;-50
2021/12/19 10:55:47;;;;;;;5.00;2.07;;;6.40;68.50;;;;;;5010539;28;21020;-49
2021/12/19 10:58:24;;;;;;;3.13;1.87;;;6.40;70.70;;;;;;5011335;28;20943;-47
2021/12/19 11:01:04;;;;;;;2.77;2.00;;;6.40;73.90;;;;;;5010637;28;20967;-52
2021/12/19 11:03:37;;;;;;;3.50;2.57;;;6.40;73.10;;;;;;5011907;28;20953;-50
2021/12/19 11:06:15;;;;;;;4.90;2.57;;;6.40;78.50;;;;;;5011452;28;20520;-50
2021/12/19 11:08:43;;;;;;;6.93;2.67;;;6.40;62.10;;;;;;5011558;28;20452;-50
2021/12/19 11:11:10;;;;;;;5.10;2.50;;;6.40;72.80;;;;;;5011163;28;20509;-50
2021/12/19 11:13:39;;;;;;;3.33;1.80;;;6.50;61.60;;;;;;5010756;28;20475;-50
2021/12/19 11:16:06;;;;;;;3.10;2.03;;;6.50;67.20;;;;;;5011382;28;20541;-50
2021/12/19 11:18:32;;;;;;;4.47;2.03;;;6.50;72.60;;;;;;5011401;28;20527;-52
2021/12/19 11:20:59;;;;;;;5.03;2.80;;;6.50;73.50;;;;;;5011660;28;20807;-51
2021/12/19 11:23:27;;;;;;;2.67;1.93;;;6.50;62.90;;;;;;5010673;28;20538;-52
2021/12/19 11:25:55;;;;;;;3.07;1.57;;;6.50;66.30;;;;;;5009311;28;21005;-51
2021/12/19 11:28:21;;;;;;;5.37;1.90;;;6.40;71.20;;;;;;5014933;28;20772;-51
2021/12/19 11:30:50;;;;;;;4.63;2.43;;;6.40;65.10;;;;;;5015393;28;20538;-52
2021/12/19 11:33:29;;;;;;;4.03;2.33;;;6.40;61.60;;;;;;5015197;28;20997;-48
2021/12/19 11:35:58;;;;;;;2.20;1.50;;;6.40;56.80;;;;;;5015010;28;20574;-52
2021/12/19 11:38:25;;;;;;;9.60;3.40;;;6.40;54.10;;;;;;5014066;28;21032;-51
2021/12/19 11:40:52;;;;;;;4.10;1.90;;;6.40;47.80;;;;;;5014964;28;20551;-56
2021/12/19 11:43:19;;;;;;;4.27;2.30;;;6.40;48.40;;;;;;5013620;28;21015;-53
2021/12/19 11:45:46;;;;;;;2.00;1.50;;;6.40;46.30;;;;;;5014972;28;20546;-52
2021/12/19 11:48:22;;;;;;;9.47;2.50;;;6.40;44.60;;;;;;5014786;28;20462;-52
2021/12/19 11:50:50;;;;;;;4.37;1.97;;;6.40;50.00;;;;;;5014449;28;20459;-57
2021/12/19 11:53:26;;;;;;;5.40;1.70;;;6.40;42.80;;;;;;5014254;28;20460;-53
2021/12/19 11:55:54;;;;;;;6.43;2.63;;;6.40;32.20;;;;;;5011535;28;20492;-51
2021/12/19 11:58:29;;;;;;;3.33;2.70;;;6.40;26.70;;;;;;4995214;28;20459;-47
2021/12/19 12:01:09;;;;;;;4.30;2.20;;;6.30;30.90;;;;;;4998521;28;20443;-50
2021/12/19 12:03:54;;;;;;;3.93;1.70;;;6.40;20.60;;;;;;5015408;28;20456;-47
2021/12/19 12:06:40;;;;;;;6.17;1.67;;;6.40;99.90;;;;;;5014167;28;20482;-50
2021/12/19 12:09:10;;;;;;;4.07;2.43;;;6.40;99.90;;;;;;5014652;28;20451;-56
2021/12/19 12:11:38;;;;;;;6.80;2.20;;;6.40;99.90;;;;;;5014411;28;20527;-56
2021/12/19 12:14:21;;;;;;;4.97;2.00;;;6.40;99.90;;;;;;5014695;28;20440;-51
2021/12/19 12:16:57;;;;;;;7.07;2.70;;;6.40;99.90;;;;;;5014435;28;20872;-50
2021/12/19 12:19:42;;;;;;;5.13;2.50;;;6.40;99.90;;;;;;5016579;28;20455;-51
2021/12/19 12:22:34;;;;;;;6.37;3.20;;;6.40;99.90;;;;;;5007379;28;20454;-50
2021/12/19 12:25:07;;;;;;;4.13;2.30;;;6.40;99.90;;;;;;5014571;28;20818;-50
2021/12/19 12:27:38;;;;;;;6.67;2.07;;;6.40;99.90;;;;;;5013732;28;20984;-51
2021/12/19 12:30:07;;;;;;;6.30;2.47;;;6.50;99.90;;;;;;4996171;28;20456;-50
2021/12/19 12:32:33;;;;;;;7.40;2.67;;;6.40;99.90;;;;;;5012101;28;20487;-50
2021/12/19 12:35:01;;;;;;;6.70;1.80;;;6.40;99.90;;;;;;5014313;28;20554;-50
2021/12/19 12:37:28;;;;;;;3.27;2.20;;;6.40;99.90;;;;;;5013753;28;20614;-50
2021/12/19 12:40:19;;;;;;;4.33;2.07;;;6.40;99.90;;;;;;5013336;28;20949;-50
2021/12/19 12:43:09;;;;;;;4.87;1.60;;;6.40;99.90;;;;;;5013926;28;20455;-50
2021/12/19 12:46:10;;;;;;;6.00;2.40;;;6.40;99.90;;;;;;5011699;28;20957;-51
2021/12/19 12:48:43;;;;;;;3.90;2.13;;;6.50;99.90;;;;;;5013615;28;20531;-50
2021/12/19 12:51:13;;;;;;;3.93;1.93;;;6.50;99.90;;;;;;5013152;28;20440;-50
2021/12/19 12:53:41;;;;;;;5.30;1.93;;;6.50;99.90;;;;;;5005434;28;20869;-51
2021/12/19 12:56:12;;;;;;;5.10;2.67;;;6.50;99.90;;;;;;4994114;28;20520;-51
2021/12/19 12:58:41;;;;;;;6.33;1.87;;;6.40;99.90;;;;;;5010319;28;20547;-50
2021/12/19 13:01:23;;;;;;;3.87;1.63;;;6.50;99.90;;;;;;4994061;28;20488;-50
2021/12/19 13:04:09;;;;;;;10.80;2.67;;;6.50;99.90;;;;;;5012476;28;20448;-52
2021/12/19 13:06:50;;;;;;;3.40;1.27;;;6.50;99.90;;;;;;5013553;28;20547;-53
2021/12/19 13:09:21;;;;;;;5.90;2.13;;;6.50;99.90;;;;;;5013237;28;20439;-48
2021/12/19 13:11:49;;;;;;;6.30;1.87;;;6.50;99.90;;;;;;5013418;28;20526;-55
2021/12/19 13:14:21;;;;;;;3.53;2.30;;;6.60;99.90;;;;;;4994389;28;20560;-52
2021/12/19 13:16:50;;;;;;;3.00;1.77;;;6.50;99.90;;;;;;5010852;28;20487;-48
2021/12/19 13:19:39;;;;;;;2.87;1.67;;;6.50;99.90;;;;;;5012981;28;20475;-48
2021/12/19 13:22:10;;;;;;;2.00;1.50;;;6.50;99.90;;;;;;5012804;28;20509;-48
2021/12/19 13:24:36;;;;;;;2.87;1.70;;;6.50;99.90;;;;;;5012736;28;20999;-47
2021/12/19 13:27:09;;;;;;;2.30;1.57;;;6.60;99.90;;;;;;5013305;28;20550;-47
2021/12/19 13:29:36;;;;;;;5.83;1.77;;;6.60;99.90;;;;;;5013012;28;20531;-46
2021/12/19 13:32:20;;;;;;;2.20;1.87;;;6.60;99.90;;;;;;5011768;28;20569;-46
2021/12/19 13:34:47;;;;;;;2.17;1.60;;;6.50;99.90;;;;;;5011692;28;20497;-48
2021/12/19 13:37:15;;;;;;;2.43;1.73;;;6.60;99.90;;;;;;5013019;28;20583;-48
2021/12/19 13:39:43;;;;;;;4.10;1.67;;;6.60;99.90;;;;;;5012608;28;21033;-48
2021/12/19 13:42:11;;;;;;;6.53;1.80;;;6.60;99.90;;;;;;5012662;28;20479;-47
2021/12/19 13:44:38;;;;;;;3.07;1.30;;;6.60;99.90;;;;;;5012501;28;20498;-48
2021/12/19 13:47:14;;;;;;;2.83;1.40;;;6.60;99.90;;;;;;5012774;28;20499;-47
2021/12/19 13:49:41;;;;;;;2.63;1.53;;;6.60;99.90;;;;;;5012174;28;21029;-46
2021/12/19 13:52:08;;;;;;;3.30;1.83;;;6.60;99.90;;;;;;5012411;28;20488;-47
2021/12/19 13:54:40;;;;;;;2.30;1.60;;;6.60;99.90;;;;;;5012880;28;20483;-47